createdAt,value
2023-04-16T00:04:11.449Z,30.40
2023-04-16T00:09:09.689Z,31.02
2023-04-16T00:14:09.804Z,31.63
2023-04-16T00:19:09.081Z,32.36
2023-04-16T00:24:07.292Z,32.78
2023-04-16T00:29:07.680Z,32.38
2023-04-16T00:34:05.793Z,33.01
2023-04-16T00:39:04.947Z,33.93
2023-04-16T00:44:05.136Z,34.26
2023-04-16T00:49:03.263Z,33.86
2023-04-16T00:54:01.411Z,35.21
2023-04-16T00:59:01.628Z,35.21
2023-04-16T01:04:01.924Z,35.75
2023-04-16T01:08:58.957Z,36.79
2023-04-16T01:14:00.155Z,37.63
2023-04-16T01:18:59.298Z,36.89
2023-04-16T01:23:58.454Z,36.90
2023-04-16T01:28:57.615Z,36.38
2023-04-16T01:33:56.791Z,36.58
2023-04-16T01:38:55.984Z,36.58
2023-04-16T01:43:54.099Z,36.08
2023-04-16T01:48:55.303Z,36.62
2023-04-16T01:53:52.460Z,36.70
2023-04-16T01:58:51.635Z,36.40
2023-04-16T02:03:50.961Z,36.18
2023-04-16T02:08:50.002Z,37.12
2023-04-16T02:13:50.175Z,36.20
2023-04-16T02:18:48.377Z,36.82
2023-04-16T02:23:48.531Z,36.92
2023-04-16T02:28:48.693Z,37.24
2023-04-16T02:33:46.031Z,36.74
2023-04-16T02:38:45.183Z,36.96
2023-04-16T02:43:44.359Z,36.84
2023-04-16T02:48:43.531Z,36.22
2023-04-16T02:53:42.675Z,36.74
2023-04-16T02:58:42.913Z,36.86
2023-04-16T03:03:41.000Z,36.86
2023-04-16T03:08:41.344Z,36.66
2023-04-16T03:13:39.652Z,36.55
2023-04-16T03:18:40.018Z,36.86
2023-04-16T03:23:38.166Z,36.55
2023-04-16T03:28:37.322Z,37.38
2023-04-16T03:33:36.527Z,37.90
2023-04-16T03:38:35.728Z,37.18
2023-04-16T03:43:35.894Z,36.87
2023-04-16T03:48:33.057Z,37.49
2023-04-16T03:53:33.248Z,37.80
2023-04-16T03:58:32.400Z,37.92
2023-04-16T04:03:31.672Z,37.40
2023-04-16T04:08:31.806Z,37.29
2023-04-16T04:13:29.954Z,37.71
2023-04-16T04:18:29.114Z,37.51
2023-04-16T04:23:29.277Z,38.12
2023-04-16T04:28:28.591Z,38.64
2023-04-16T04:33:26.784Z,38.34
2023-04-16T04:38:26.919Z,39.37
2023-04-16T04:43:26.387Z,38.86
2023-04-16T04:48:24.599Z,38.54
2023-04-16T04:53:22.813Z,38.64
2023-04-16T04:58:22.947Z,38.75
2023-04-16T05:03:22.213Z,38.54
2023-04-16T05:08:20.356Z,38.54
2023-04-16T05:13:20.501Z,38.96
2023-04-16T05:18:19.643Z,38.86
2023-04-16T05:24:34.047Z,38.44
2023-04-16T05:28:18.156Z,38.76
2023-04-16T05:33:16.338Z,39.26
2023-04-16T05:38:17.492Z,38.86
2023-04-16T05:43:15.647Z,38.46
2023-04-16T05:48:16.817Z,38.35
2023-04-16T05:53:13.966Z,38.15
2023-04-16T05:58:15.117Z,38.66
2023-04-16T06:03:11.381Z,38.68
2023-04-16T06:08:11.458Z,38.56
2023-04-16T06:13:10.617Z,38.06
2023-04-16T06:18:10.861Z,38.48
2023-04-16T06:23:08.031Z,38.48
2023-04-16T06:28:08.235Z,39.20
2023-04-16T06:33:08.401Z,39.08
2023-04-16T06:38:07.549Z,38.98
2023-04-16T06:43:06.698Z,38.28
2023-04-16T06:48:04.858Z,38.57
2023-04-16T06:53:04.078Z,38.98
2023-04-16T06:58:03.285Z,38.78
2023-04-16T07:03:02.615Z,38.98
2023-04-16T07:08:02.683Z,38.68
2023-04-16T07:13:00.856Z,39.20
2023-04-16T07:18:00.162Z,39.10
2023-04-16T07:23:00.259Z,38.57
2023-04-16T07:27:58.418Z,38.98
2023-04-16T07:33:00.797Z,38.28
2023-04-16T07:37:56.751Z,38.37
2023-04-16T07:42:56.935Z,38.98
2023-04-16T07:47:54.275Z,38.68
2023-04-16T07:52:54.452Z,38.78
2023-04-16T07:57:53.581Z,38.48
2023-04-16T08:02:54.963Z,38.37
2023-04-16T08:07:53.011Z,38.48
2023-04-16T08:12:51.307Z,38.68
2023-04-16T08:17:50.675Z,38.28
2023-04-16T08:22:49.987Z,38.68
2023-04-16T08:27:49.147Z,38.37
2023-04-16T08:32:50.007Z,38.17
2023-04-16T08:37:47.415Z,37.65
2023-04-16T08:42:46.582Z,36.93
2023-04-16T08:47:46.775Z,39.70
2023-04-16T08:52:45.919Z,38.64
2023-04-16T08:57:46.096Z,36.54
2023-04-16T09:02:43.415Z,35.06
2023-04-16T09:07:43.467Z,33.31
2023-04-16T09:12:42.621Z,33.19
2023-04-16T09:17:40.859Z,31.21
2023-04-16T09:22:42.060Z,31.16
2023-04-16T09:27:39.221Z,31.05
2023-04-16T09:32:38.376Z,31.15
2023-04-16T09:37:37.499Z,32.06
2023-04-16T09:42:36.837Z,29.95
2023-04-16T09:47:36.001Z,30.61
2023-04-16T09:52:36.139Z,31.10
2023-04-16T09:57:34.313Z,30.91
2023-04-16T10:02:33.504Z,30.80
2023-04-16T10:07:33.617Z,30.31
2023-04-16T10:12:31.772Z,30.21
2023-04-16T10:17:30.941Z,29.27
2023-04-16T10:22:30.264Z,29.37
2023-04-16T10:27:29.407Z,28.44
2023-04-16T10:32:28.800Z,28.36
2023-04-16T10:37:27.943Z,28.26
2023-04-16T10:42:27.089Z,28.44
2023-04-16T10:47:26.279Z,27.73
2023-04-16T10:52:25.413Z,28.03
2023-04-16T10:57:24.575Z,28.63
2023-04-16T11:07:22.915Z,28.33
2023-04-16T11:12:22.290Z,28.63
2023-04-16T11:17:21.465Z,27.62
2023-04-16T11:22:20.583Z,26.90
2023-04-16T11:27:19.724Z,27.31
2023-04-16T11:32:21.266Z,28.42
2023-04-16T11:37:18.388Z,28.43
2023-04-16T11:42:17.547Z,28.33
2023-04-16T11:47:16.809Z,28.03
2023-04-16T11:52:15.993Z,28.25
2023-04-16T11:57:15.279Z,28.33
2023-04-16T12:02:14.626Z,28.64
2023-04-16T12:07:13.854Z,28.83
2023-04-16T12:12:13.120Z,28.55
2023-04-16T12:17:12.488Z,28.74
2023-04-16T12:22:11.536Z,28.94
2023-04-16T12:27:10.831Z,28.23
2023-04-16T12:32:11.160Z,28.73
2023-04-16T12:37:09.470Z,29.22
2023-04-16T12:42:10.043Z,28.52
2023-04-16T12:47:07.971Z,27.51
2023-04-16T12:52:07.212Z,28.72
2023-04-16T12:57:05.530Z,30.24
2023-04-16T13:02:06.869Z,30.04
2023-04-16T13:07:06.366Z,28.90
2023-04-16T13:12:05.420Z,28.11
2023-04-16T13:17:03.536Z,26.86
2023-04-16T13:22:02.823Z,27.88
2023-04-16T13:27:01.330Z,28.89
2023-04-16T13:32:01.299Z,29.41
2023-04-16T13:37:01.618Z,28.79
2023-04-16T13:41:59.710Z,30.27
2023-04-16T13:46:59.378Z,28.36
2023-04-16T13:51:58.234Z,29.39
2023-04-16T13:56:59.810Z,28.18
2023-04-16T14:01:56.750Z,28.49
2023-04-16T14:06:56.086Z,28.58
2023-04-16T14:11:55.662Z,29.72
2023-04-16T14:16:55.571Z,30.13
2023-04-16T14:21:56.850Z,31.79
2023-04-16T14:26:53.140Z,31.76
2023-04-16T14:31:52.447Z,32.39
2023-04-16T14:36:52.824Z,32.60
2023-04-16T14:41:50.860Z,31.24
2023-04-16T14:46:50.191Z,30.22
2023-04-16T14:51:51.813Z,31.13
2023-04-16T14:56:48.823Z,30.91
2023-04-16T15:01:50.234Z,32.47
2023-04-16T15:06:47.228Z,31.86
2023-04-16T15:11:47.682Z,33.00
2023-04-16T15:16:47.808Z,33.80
2023-04-16T15:21:48.832Z,33.61
2023-04-16T15:26:44.279Z,32.70
2023-04-16T15:31:43.884Z,34.34
2023-04-16T15:36:43.036Z,33.33
2023-04-16T15:41:57.490Z,33.13
2023-04-16T15:46:42.000Z,33.31
2023-04-16T15:51:40.639Z,34.96
2023-04-16T15:56:40.361Z,35.88
2023-04-16T16:01:39.379Z,35.98
2023-04-16T16:06:38.477Z,35.58
2023-04-16T16:11:38.945Z,36.19
2023-04-16T16:16:37.230Z,36.40
2023-04-16T16:21:36.544Z,36.61
2023-04-16T16:26:36.465Z,36.91
2023-04-16T16:31:36.113Z,34.61
2023-04-16T16:36:34.065Z,34.63
2023-04-16T16:41:35.475Z,36.71
2023-04-16T16:46:32.757Z,37.01
2023-04-16T16:51:33.044Z,37.23
2023-04-16T16:56:32.303Z,36.18
2023-04-16T17:01:31.770Z,36.79
2023-04-16T17:06:29.990Z,36.49
2023-04-16T17:11:30.101Z,37.31
2023-04-16T17:16:27.029Z,37.23
2023-04-16T17:21:28.602Z,35.48
2023-04-16T17:26:27.846Z,36.29
2023-04-16T17:31:27.302Z,36.08
2023-04-16T17:36:26.274Z,35.88
2023-04-16T17:41:25.545Z,36.61
2023-04-16T17:46:24.819Z,34.84
2023-04-16T17:51:23.174Z,33.83
2023-04-16T17:56:22.956Z,35.91
2023-04-16T18:01:22.425Z,35.73
2023-04-16T18:06:24.832Z,34.46
2023-04-16T18:11:20.890Z,33.23
2023-04-16T18:16:19.247Z,33.53
2023-04-16T18:21:19.130Z,33.23
2023-04-16T18:26:21.161Z,33.12
2023-04-16T18:31:20.861Z,32.59
2023-04-16T18:36:17.033Z,31.37
2023-04-16T18:41:15.290Z,31.26
2023-04-16T18:46:16.698Z,32.50
2023-04-16T18:51:16.363Z,32.92
2023-04-16T18:56:19.081Z,32.30
2023-04-16T19:01:12.265Z,30.85
2023-04-16T19:06:11.503Z,31.77
2023-04-16T19:11:10.713Z,32.09
2023-04-16T19:16:09.872Z,32.30
2023-04-16T19:21:09.051Z,31.56
2023-04-16T19:26:07.918Z,32.30
2023-04-16T19:31:08.417Z,32.62
2023-04-16T19:36:07.312Z,33.13
2023-04-16T19:41:07.562Z,33.33
2023-04-16T19:46:05.197Z,34.38
2023-04-16T19:51:05.266Z,33.33
2023-04-16T19:56:04.583Z,33.33
2023-04-16T20:01:03.450Z,34.89
2023-04-16T20:06:01.044Z,33.53
2023-04-16T20:11:02.103Z,32.00
2023-04-16T20:16:00.056Z,33.04
2023-04-16T20:20:59.507Z,33.56
2023-04-16T20:25:58.448Z,33.76
2023-04-16T20:30:57.789Z,32.71
2023-04-16T20:35:56.887Z,32.82
2023-04-16T20:40:56.179Z,33.03
2023-04-16T20:45:55.507Z,33.96
2023-04-16T20:50:55.623Z,33.45
2023-04-16T20:55:54.124Z,32.52
2023-04-16T21:00:54.210Z,31.51
2023-04-16T21:05:52.501Z,31.95
2023-04-16T21:10:51.753Z,32.78
2023-04-16T21:15:51.119Z,32.46
2023-04-16T21:20:51.284Z,30.59
2023-04-16T21:25:49.637Z,28.64
2023-04-16T21:30:49.795Z,30.41
2023-04-16T21:35:48.912Z,30.08
2023-04-16T21:40:47.214Z,26.89
2023-04-16T21:45:46.537Z,28.34
2023-04-16T21:50:45.830Z,29.68
2023-04-16T21:55:45.119Z,29.24
2023-04-16T22:00:44.266Z,28.33
2023-04-16T22:05:43.616Z,28.96
2023-04-16T22:10:43.746Z,28.96
2023-04-16T22:15:43.061Z,29.16
2023-04-16T22:20:42.384Z,29.04
2023-04-16T22:25:40.748Z,28.73
2023-04-16T22:30:40.900Z,29.03
2023-04-16T22:35:39.040Z,29.46
2023-04-16T22:40:38.192Z,29.98
2023-04-16T22:45:37.432Z,31.02
2023-04-16T22:50:37.620Z,29.88
2023-04-16T22:55:35.944Z,29.16
2023-04-16T23:00:35.118Z,29.86
2023-04-16T23:05:34.277Z,29.55
2023-04-16T23:10:33.473Z,29.35
2023-04-16T23:15:33.646Z,28.94
2023-04-16T23:20:33.753Z,28.52
2023-04-16T23:25:31.863Z,28.63
2023-04-16T23:30:31.346Z,29.16
2023-04-16T23:35:30.478Z,30.59
2023-04-16T23:40:28.625Z,31.63
2023-04-16T23:45:28.815Z,32.36
2023-04-16T23:50:26.984Z,32.79
2023-04-16T23:55:26.102Z,33.51
